Time,TemperatureF,DewpointF,PressureIn,WindDirection,WindDirectionDegrees,WindSpeedMPH,WindSpeedGustMPH,Humidity,HourlyPrecipIn,Conditions,Clouds,dailyrainin,SoftwareType,DateUTC
2014-01-09 00:00:00,66.0,65.4,29.94,NNW,341,0.0,2.0,98,0.00,,,0.00,WeatherCatV1.11B39,2014-01-09 10:00:00,
2014-01-09 00:05:00,66.1,65.5,29.93,West,275,0.0,3.0,98,0.00,,,0.00,WeatherCatV1.11B39,2014-01-09 10:05:00,
2014-01-09 00:10:00,66.1,65.2,29.93,West,271,0.0,0.0,97,0.00,,,0.00,WeatherCatV1.11B39,2014-01-09 10:10:00,
2014-01-09 00:15:00,66.1,65.2,29.93,West,271,0.0,0.0,97,0.00,,,0.00,WeatherCatV1.11B39,2014-01-09 10:15:00,
2014-01-09 00:20:00,66.0,65.1,29.93,West,271,0.0,0.0,97,0.00,,,0.00,WeatherCatV1.11B39,2014-01-09 10:20:00,
2014-01-09 00:25:00,65.9,65.0,29.93,West,270,0.0,0.0,97,0.00,,,0.00,WeatherCatV1.11B39,2014-01-09 10:25:00,
2014-01-09 00:30:00,65.9,65.0,29.92,West,271,0.0,0.0,97,0.00,,,0.00,WeatherCatV1.11B39,2014-01-09 10:30:00,
2014-01-09 00:35:00,65.9,65.0,29.92,West,271,0.0,0.0,97,0.00,,,0.00,WeatherCatV1.11B39,2014-01-09 10:35:00,
2014-01-09 00:40:00,65.8,64.9,29.91,West,271,0.0,0.0,97,0.00,,,0.00,WeatherCatV1.11B39,2014-01-09 10:40:00,
2014-01-09 00:45:00,65.9,65.0,29.91,West,271,0.0,0.0,97,0.00,,,0.00,WeatherCatV1.11B39,2014-01-09 10:45:00,
2014-01-09 00:50:00,65.9,65.0,29.91,West,271,0.0,0.0,97,0.00,,,0.00,WeatherCatV1.11B39,2014-01-09 10:50:00,
2014-01-09 00:55:00,65.9,65.0,29.91,West,271,0.0,0.0,97,0.00,,,0.00,WeatherCatV1.11B39,2014-01-09 10:55:00,
2014-01-09 01:00:00,66.0,65.4,29.91,West,271,0.0,0.0,98,0.00,,,0.01,WeatherCatV1.11B39,2014-01-09 11:00:00,
2014-01-09 01:05:00,66.1,65.2,29.91,West,271,0.0,0.0,97,0.00,,,0.01,WeatherCatV1.11B39,2014-01-09 11:05:00,
2014-01-09 01:10:00,66.1,65.2,29.90,West,271,0.0,0.0,97,0.00,,,0.01,WeatherCatV1.11B39,2014-01-09 11:10:00,
2014-01-09 01:15:00,66.2,65.6,29.90,West,271,0.0,0.0,98,0.00,,,0.01,WeatherCatV1.11B39,2014-01-09 11:15:00,
2014-01-09 01:20:00,66.2,65.3,29.90,West,281,0.0,0.0,97,0.00,,,0.01,WeatherCatV1.11B39,2014-01-09 11:20:00,
2014-01-09 01:25:00,66.2,65.3,29.90,West,281,0.0,0.0,97,0.00,,,0.01,WeatherCatV1.11B39,2014-01-09 11:25:00,
2014-01-09 01:30:00,66.2,65.3,29.89,West,281,0.0,0.0,97,0.00,,,0.01,WeatherCatV1.11B39,2014-01-09 11:30:00,
2014-01-09 01:35:00,66.3,65.7,29.89,West,280,0.0,0.0,98,0.00,,,0.01,WeatherCatV1.11B39,2014-01-09 11:35:00,
2014-01-09 01:40:00,66.4,65.8,29.89,West,280,0.0,0.0,98,0.00,,,0.01,WeatherCatV1.11B39,2014-01-09 11:40:00,
2014-01-09 01:45:00,66.4,65.8,29.89,West,277,0.0,0.0,98,0.00,,,0.01,WeatherCatV1.11B39,2014-01-09 11:45:00,
2014-01-09 01:50:00,66.4,65.8,29.88,West,277,0.0,0.0,98,0.00,,,0.01,WeatherCatV1.11B39,2014-01-09 11:50:00,
2014-01-09 01:55:00,66.4,65.8,29.88,West,277,0.0,0.0,98,0.00,,,0.01,WeatherCatV1.11B39,2014-01-09 11:55:00,
2014-01-09 02:00:00,66.3,65.4,29.88,West,277,0.0,0.0,97,0.00,,,0.01,WeatherCatV1.11B39,2014-01-09 12:00:00,
2014-01-09 02:05:00,66.1,65.2,29.88,West,277,0.0,0.0,97,0.00,,,0.01,WeatherCatV1.11B39,2014-01-09 12:05:00,
2014-01-09 02:10:00,66.0,65.1,29.88,West,277,0.0,0.0,97,0.00,,,0.01,WeatherCatV1.11B39,2014-01-09 12:10:00,
2014-01-09 02:15:00,65.8,64.9,29.87,West,277,0.0,0.0,97,0.00,,,0.01,WeatherCatV1.11B39,2014-01-09 12:15:00,
2014-01-09 02:20:00,65.7,64.8,29.87,West,277,0.0,0.0,97,0.00,,,0.01,WeatherCatV1.11B39,2014-01-09 12:20:00,
2014-01-09 02:25:00,65.6,65.0,29.87,West,277,0.0,0.0,98,0.00,,,0.01,WeatherCatV1.11B39,2014-01-09 12:25:00,
2014-01-09 02:30:00,65.6,65.0,29.87,West,277,0.0,0.0,98,0.00,,,0.01,WeatherCatV1.11B39,2014-01-09 12:30:00,
2014-01-09 02:35:00,65.5,64.9,29.87,West,277,0.0,0.0,98,0.00,,,0.01,WeatherCatV1.11B39,2014-01-09 12:35:00,
2014-01-09 02:40:00,65.5,64.9,29.87,West,277,0.0,0.0,98,0.00,,,0.01,WeatherCatV1.11B39,2014-01-09 12:40:00,
2014-01-09 02:45:00,65.6,65.0,29.87,West,277,0.0,0.0,98,0.00,,,0.01,WeatherCatV1.11B39,2014-01-09 12:45:00,
2014-01-09 02:50:00,65.6,65.0,29.87,West,277,0.0,0.0,98,0.00,,,0.01,WeatherCatV1.11B39,2014-01-09 12:50:00,
2014-01-09 02:55:00,65.5,64.9,29.86,West,277,0.0,0.0,98,0.00,,,0.01,WeatherCatV1.11B39,2014-01-09 12:55:00,
2014-01-09 03:00:00,65.3,64.7,29.86,West,277,0.0,0.0,98,0.00,,,0.01,WeatherCatV1.11B39,2014-01-09 13:00:00,
2014-01-09 03:05:00,65.1,64.5,29.86,West,277,0.0,0.0,98,0.00,,,0.01,WeatherCatV1.11B39,2014-01-09 13:05:00,
2014-01-09 03:10:00,65.1,64.5,29.86,West,277,0.0,0.0,98,0.00,,,0.01,WeatherCatV1.11B39,2014-01-09 13:10:00,
2014-01-09 03:15:00,64.9,64.3,29.86,West,277,0.0,0.0,98,0.00,,,0.01,WeatherCatV1.11B39,2014-01-09 13:15:00,
2014-01-09 03:20:00,64.8,64.2,29.86,West,277,0.0,0.0,98,0.00,,,0.01,WeatherCatV1.11B39,2014-01-09 13:20:00,
2014-01-09 03:25:00,64.6,64.0,29.86,West,277,0.0,0.0,98,0.00,,,0.01,WeatherCatV1.11B39,2014-01-09 13:25:00,
2014-01-09 03:30:00,64.5,63.9,29.86,West,277,0.0,0.0,98,0.00,,,0.01,WeatherCatV1.11B39,2014-01-09 13:30:00,
2014-01-09 03:35:00,64.5,63.9,29.86,West,276,0.0,0.0,98,0.00,,,0.01,WeatherCatV1.11B39,2014-01-09 13:35:00,
2014-01-09 03:39:00,64.4,63.8,29.86,West,276,0.0,0.0,98,0.00,,,0.01,WeatherCatV1.11B39,2014-01-09 13:39:00,
2014-01-09 03:44:00,64.3,63.7,29.86,West,276,0.0,0.0,98,0.00,,,0.01,WeatherCatV1.11B39,2014-01-09 13:44:00,
2014-01-09 03:49:00,64.3,63.7,29.86,West,276,0.0,0.0,98,0.00,,,0.01,WeatherCatV1.11B39,2014-01-09 13:49:00,
2014-01-09 03:54:00,64.2,63.6,29.86,West,276,0.0,0.0,98,0.00,,,0.01,WeatherCatV1.11B39,2014-01-09 13:54:00,
2014-01-09 03:59:00,64.1,63.5,29.86,West,276,0.0,0.0,98,0.00,,,0.01,WeatherCatV1.11B39,2014-01-09 13:59:00,
2014-01-09 04:04:00,64.2,63.6,29.86,West,276,0.0,0.0,98,0.00,,,0.01,WeatherCatV1.11B39,2014-01-09 14:04:00,
2014-01-09 04:09:00,64.3,63.7,29.86,West,276,0.0,0.0,98,0.00,,,0.01,WeatherCatV1.11B39,2014-01-09 14:09:00,
2014-01-09 04:14:00,64.3,63.7,29.86,West,276,0.0,0.0,98,0.00,,,0.01,WeatherCatV1.11B39,2014-01-09 14:14:00,
2014-01-09 04:19:00,64.4,63.8,29.86,West,276,0.0,0.0,98,0.00,,,0.01,WeatherCatV1.11B39,2014-01-09 14:19:00,
2014-01-09 04:24:00,64.3,63.7,29.86,West,277,0.0,0.0,98,0.00,,,0.01,WeatherCatV1.11B39,2014-01-09 14:24:00,
2014-01-09 04:29:00,64.4,63.8,29.86,West,277,0.0,0.0,98,0.00,,,0.01,WeatherCatV1.11B39,2014-01-09 14:29:00,
2014-01-09 04:34:00,64.5,63.9,29.86,West,277,0.0,0.0,98,0.00,,,0.01,WeatherCatV1.11B39,2014-01-09 14:34:00,
2014-01-09 04:39:00,64.6,64.0,29.87,West,276,0.0,0.0,98,0.00,,,0.01,WeatherCatV1.11B39,2014-01-09 14:39:00,
2014-01-09 04:44:00,64.9,64.6,29.87,West,271,0.0,0.0,99,0.00,,,0.01,WeatherCatV1.11B39,2014-01-09 14:44:00,
2014-01-09 04:49:00,65.2,64.9,29.87,SW,225,0.0,2.0,99,0.00,,,0.01,WeatherCatV1.11B39,2014-01-09 14:49:00,
2014-01-09 04:54:00,65.5,65.2,29.87,SW,223,1.0,1.0,99,0.00,,,0.01,WeatherCatV1.11B39,2014-01-09 14:54:00,
2014-01-09 04:59:00,65.6,65.3,29.87,SW,225,0.0,0.0,99,0.00,,,0.01,WeatherCatV1.11B39,2014-01-09 14:59:00,
2014-01-09 05:04:00,65.8,65.5,29.87,SE,145,0.0,0.0,99,0.00,,,0.01,WeatherCatV1.11B39,2014-01-09 15:04:00,
2014-01-09 05:09:00,65.9,65.6,29.87,SE,144,0.0,0.0,99,0.00,,,0.01,WeatherCatV1.11B39,2014-01-09 15:09:00,
2014-01-09 05:14:00,66.0,65.7,29.87,SE,143,0.0,0.0,99,0.00,,,0.01,WeatherCatV1.11B39,2014-01-09 15:14:00,
2014-01-09 05:19:00,66.0,65.4,29.88,SE,143,0.0,0.0,98,0.00,,,0.01,WeatherCatV1.11B39,2014-01-09 15:19:00,
2014-01-09 05:24:00,66.1,65.5,29.88,SE,143,0.0,0.0,98,0.00,,,0.01,WeatherCatV1.11B39,2014-01-09 15:24:00,
2014-01-09 05:29:00,66.1,65.5,29.88,SSE,167,0.0,0.0,98,0.00,,,0.01,WeatherCatV1.11B39,2014-01-09 15:29:00,
2014-01-09 05:34:00,66.1,65.5,29.88,SSE,160,0.0,2.0,98,0.00,,,0.01,WeatherCatV1.11B39,2014-01-09 15:34:00,
2014-01-09 05:39:00,66.2,65.6,29.88,South,191,0.0,0.0,98,0.00,,,0.01,WeatherCatV1.11B39,2014-01-09 15:39:00,
2014-01-09 05:44:00,66.2,65.6,29.88,SSE,167,0.0,0.0,98,0.00,,,0.01,WeatherCatV1.11B39,2014-01-09 15:44:00,
2014-01-09 05:49:00,66.1,65.5,29.88,SSE,159,0.0,1.0,98,0.00,,,0.01,WeatherCatV1.11B39,2014-01-09 15:49:00,
2014-01-09 05:54:00,66.1,65.5,29.88,SSE,160,0.0,0.0,98,0.00,,,0.01,WeatherCatV1.11B39,2014-01-09 15:54:00,
2014-01-09 05:59:00,66.0,65.4,29.89,SSE,152,0.0,0.0,98,0.00,,,0.01,WeatherCatV1.11B39,2014-01-09 15:59:00,
2014-01-09 06:04:00,66.0,65.4,29.89,SE,144,0.0,0.0,98,0.00,,,0.01,WeatherCatV1.11B39,2014-01-09 16:04:00,
2014-01-09 06:09:00,66.0,65.4,29.89,ESE,122,0.0,0.0,98,0.00,,,0.01,WeatherCatV1.11B39,2014-01-09 16:09:00,
2014-01-09 06:14:00,65.9,65.3,29.89,SE,135,0.0,0.0,98,0.00,,,0.01,WeatherCatV1.11B39,2014-01-09 16:14:00,
2014-01-09 06:19:00,65.9,65.3,29.89,SE,135,0.0,0.0,98,0.00,,,0.01,WeatherCatV1.11B39,2014-01-09 16:19:00,
2014-01-09 06:24:00,65.8,65.2,29.89,SE,137,0.0,0.0,98,0.00,,,0.01,WeatherCatV1.11B39,2014-01-09 16:24:00,
2014-01-09 06:29:00,65.8,65.2,29.90,SE,141,0.0,0.0,98,0.00,,,0.01,WeatherCatV1.11B39,2014-01-09 16:29:00,
2014-01-09 06:34:00,65.9,65.3,29.90,SE,141,0.0,0.0,98,0.00,,,0.01,WeatherCatV1.11B39,2014-01-09 16:34:00,
2014-01-09 06:39:00,65.8,65.2,29.90,SE,142,0.0,0.0,98,0.00,,,0.01,WeatherCatV1.11B39,2014-01-09 16:39:00,
2014-01-09 06:44:00,66.1,65.5,29.90,SSE,167,0.0,0.0,98,0.00,,,0.01,WeatherCatV1.11B39,2014-01-09 16:44:00,
2014-01-09 06:49:00,66.2,65.6,29.90,SSE,166,0.0,0.0,98,0.00,,,0.01,WeatherCatV1.11B39,2014-01-09 16:49:00,
2014-01-09 06:54:00,66.2,65.6,29.90,SSE,155,0.0,0.0,98,0.00,,,0.01,WeatherCatV1.11B39,2014-01-09 16:54:00,
2014-01-09 06:59:00,66.2,65.3,29.91,South,172,0.0,0.0,97,0.00,,,0.01,WeatherCatV1.11B39,2014-01-09 16:59:00,
2014-01-09 07:04:00,66.2,65.3,29.91,South,172,0.0,0.0,97,0.00,,,0.01,WeatherCatV1.11B39,2014-01-09 17:04:00,
2014-01-09 07:09:00,66.2,65.3,29.91,SSE,167,0.0,0.0,97,0.00,,,0.01,WeatherCatV1.11B39,2014-01-09 17:09:00,
2014-01-09 07:14:00,66.2,65.3,29.91,SSE,167,0.0,0.0,97,0.00,,,0.01,WeatherCatV1.11B39,2014-01-09 17:14:00,
2014-01-09 07:19:00,66.2,65.3,29.91,SSE,163,0.0,0.0,97,0.00,,,0.01,WeatherCatV1.11B39,2014-01-09 17:19:00,
2014-01-09 07:25:00,66.1,65.2,29.91,SSE,163,0.0,0.0,97,0.00,,,0.01,WeatherCatV1.11B39,2014-01-09 17:25:00,
2014-01-09 07:30:00,66.1,65.2,29.91,SSE,163,0.0,0.0,97,0.00,,,0.01,WeatherCatV1.11B39,2014-01-09 17:30:00,
2014-01-09 07:35:00,66.1,65.2,29.91,SSE,163,0.0,0.0,97,0.00,,,0.01,WeatherCatV1.11B39,2014-01-09 17:35:00,
2014-01-09 07:40:00,66.3,65.4,29.92,SE,126,0.0,0.0,97,0.00,,,0.01,WeatherCatV1.11B39,2014-01-09 17:40:00,
2014-01-09 07:45:00,66.5,65.6,29.92,SE,136,0.0,2.0,97,0.00,,,0.01,WeatherCatV1.11B39,2014-01-09 17:45:00,
2014-01-09 07:55:00,66.9,65.7,29.92,ESE,109,0.0,0.0,96,0.00,,,0.01,WeatherCatV1.11B39,2014-01-09 17:55:00,
2014-01-09 08:00:00,67.2,66.3,29.92,ESE,109,0.0,0.0,97,0.00,,,0.01,WeatherCatV1.11B39,2014-01-09 18:00:00,
2014-01-09 08:11:00,67.4,66.2,29.93,ESE,109,0.0,0.0,96,0.00,,,0.01,WeatherCatV1.11B39,2014-01-09 18:11:00,
2014-01-09 08:16:00,67.5,66.3,29.93,ESE,109,0.0,0.0,96,0.00,,,0.01,WeatherCatV1.11B39,2014-01-09 18:16:00,
2014-01-09 08:21:00,67.6,66.4,29.93,ESE,110,0.0,0.0,96,0.00,,,0.01,WeatherCatV1.11B39,2014-01-09 18:21:00,
2014-01-09 08:26:00,67.7,66.5,29.93,ESE,110,0.0,0.0,96,0.00,,,0.01,WeatherCatV1.11B39,2014-01-09 18:26:00,
2014-01-09 08:31:00,67.8,66.3,29.94,ESE,110,0.0,0.0,95,0.00,,,0.01,WeatherCatV1.11B39,2014-01-09 18:31:00,
2014-01-09 08:36:00,68.0,66.8,29.94,SSE,161,0.0,0.0,96,0.00,,,0.01,WeatherCatV1.11B39,2014-01-09 18:36:00,
2014-01-09 08:41:00,68.9,67.7,29.94,SSE,160,0.0,0.0,96,0.00,,,0.01,WeatherCatV1.11B39,2014-01-09 18:41:00,
2014-01-09 08:46:00,70.1,68.9,29.94,SSE,160,0.0,0.0,96,0.00,,,0.01,WeatherCatV1.11B39,2014-01-09 18:46:00,
2014-01-09 08:51:00,70.8,68.7,29.94,SE,132,0.0,0.0,93,0.00,,,0.01,WeatherCatV1.11B39,2014-01-09 18:51:00,
2014-01-09 08:56:00,71.3,68.5,29.94,SE,138,0.0,0.0,91,0.00,,,0.01,WeatherCatV1.11B39,2014-01-09 18:56:00,
2014-01-09 09:01:00,71.9,69.1,29.94,South,169,0.0,0.0,91,0.00,,,0.01,WeatherCatV1.11B39,2014-01-09 19:01:00,
2014-01-09 09:06:00,71.8,68.0,29.95,SE,141,0.0,1.0,88,0.00,,,0.01,WeatherCatV1.11B39,2014-01-09 19:06:00,
2014-01-09 09:11:00,71.5,67.8,29.95,SSE,159,2.0,3.0,88,0.00,,,0.01,WeatherCatV1.11B39,2014-01-09 19:11:00,
2014-01-09 09:16:00,71.3,67.9,29.95,SE,141,0.0,2.0,89,0.00,,,0.01,WeatherCatV1.11B39,2014-01-09 19:16:00,
2014-01-09 09:21:00,71.7,68.6,29.95,SE,133,0.0,1.0,90,0.00,,,0.01,WeatherCatV1.11B39,2014-01-09 19:21:00,
2014-01-09 09:26:00,72.2,68.8,29.95,South,186,0.0,3.0,89,0.00,,,0.01,WeatherCatV1.11B39,2014-01-09 19:26:00,
2014-01-09 09:31:00,72.4,68.6,29.95,SSE,167,1.0,3.0,88,0.00,,,0.01,WeatherCatV1.11B39,2014-01-09 19:31:00,
2014-01-09 09:36:00,72.4,68.3,29.95,ESE,115,0.0,2.0,87,0.00,,,0.01,WeatherCatV1.11B39,2014-01-09 19:36:00,
2014-01-09 09:41:00,72.3,68.2,29.95,East,89,1.0,1.0,87,0.00,,,0.01,WeatherCatV1.11B39,2014-01-09 19:41:00,
2014-01-09 09:46:00,72.8,69.0,29.96,ESE,121,0.0,0.0,88,0.00,,,0.01,WeatherCatV1.11B39,2014-01-09 19:46:00,
2014-01-09 09:51:00,73.4,68.9,29.96,SSE,161,0.0,1.0,86,0.00,,,0.01,WeatherCatV1.11B39,2014-01-09 19:51:00,
2014-01-09 09:57:00,73.9,69.4,29.96,SE,124,0.0,0.0,86,0.00,,,0.01,WeatherCatV1.11B39,2014-01-09 19:57:00,
2014-01-09 10:02:00,74.4,70.3,29.96,SE,128,0.0,0.0,87,0.00,,,0.01,WeatherCatV1.11B39,2014-01-09 20:02:00,
2014-01-09 10:07:00,75.1,70.3,29.96,SE,144,0.0,2.0,85,0.00,,,0.01,WeatherCatV1.11B39,2014-01-09 20:07:00,
2014-01-09 10:12:00,75.7,69.1,29.96,ESE,119,1.0,3.0,80,0.00,,,0.01,WeatherCatV1.11B39,2014-01-09 20:12:00,
2014-01-09 10:17:00,76.1,70.2,29.96,East,101,0.0,1.0,82,0.00,,,0.01,WeatherCatV1.11B39,2014-01-09 20:17:00,
2014-01-09 10:22:00,76.1,69.8,29.96,WNW,288,1.0,2.0,81,0.00,,,0.01,WeatherCatV1.11B39,2014-01-09 20:22:00,
2014-01-09 10:27:00,75.2,68.6,29.96,ESE,115,0.0,1.0,80,0.00,,,0.01,WeatherCatV1.11B39,2014-01-09 20:27:00,
2014-01-09 10:32:00,74.9,68.7,29.96,ESE,107,0.0,3.0,81,0.00,,,0.01,WeatherCatV1.11B39,2014-01-09 20:32:00,
2014-01-09 10:37:00,74.5,68.6,29.96,SW,225,2.0,3.0,82,0.00,,,0.01,WeatherCatV1.11B39,2014-01-09 20:37:00,
2014-01-09 10:42:00,74.5,69.0,29.96,South,174,0.0,0.0,83,0.00,,,0.01,WeatherCatV1.11B39,2014-01-09 20:42:00,
2014-01-09 10:47:00,75.3,69.4,29.96,SE,143,0.0,2.0,82,0.00,,,0.01,WeatherCatV1.11B39,2014-01-09 20:47:00,
2014-01-09 10:52:00,76.3,70.0,29.96,East,83,2.0,4.0,81,0.00,,,0.01,WeatherCatV1.11B39,2014-01-09 20:52:00,
2014-01-09 10:57:00,75.6,69.0,29.95,SSE,160,1.0,9.0,80,0.00,,,0.01,WeatherCatV1.11B39,2014-01-09 20:57:00,
2014-01-09 11:02:00,74.5,68.6,29.95,ENE,73,4.0,8.0,82,0.00,,,0.01,WeatherCatV1.11B39,2014-01-09 21:02:00,
2014-01-09 11:07:00,73.7,68.6,29.95,ESE,103,0.0,3.0,84,0.00,,,0.01,WeatherCatV1.11B39,2014-01-09 21:07:00,
2014-01-09 11:12:00,74.6,70.1,29.95,SE,127,1.0,4.0,86,0.00,,,0.01,WeatherCatV1.11B39,2014-01-09 21:12:00,
2014-01-09 11:17:00,75.1,68.5,29.94,SSE,148,0.0,6.0,80,0.00,,,0.01,WeatherCatV1.11B39,2014-01-09 21:17:00,
2014-01-09 11:22:00,75.1,68.9,29.94,SE,135,0.0,1.0,81,0.00,,,0.01,WeatherCatV1.11B39,2014-01-09 21:22:00,
2014-01-09 11:27:00,75.0,68.8,29.94,SE,130,2.0,2.0,81,0.00,,,0.01,WeatherCatV1.11B39,2014-01-09 21:27:00,
2014-01-09 11:32:00,74.7,68.1,29.94,ESE,117,0.0,7.0,80,0.00,,,0.01,WeatherCatV1.11B39,2014-01-09 21:32:00,
2014-01-09 11:37:00,75.2,69.3,29.94,East,80,1.0,6.0,82,0.00,,,0.01,WeatherCatV1.11B39,2014-01-09 21:37:00,
2014-01-09 11:42:00,75.7,69.4,29.93,SSE,147,0.0,6.0,81,0.00,,,0.01,WeatherCatV1.11B39,2014-01-09 21:42:00,
2014-01-09 11:47:00,75.2,68.2,29.93,ENE,70,0.0,7.0,79,0.00,,,0.01,WeatherCatV1.11B39,2014-01-09 21:47:00,
2014-01-09 11:52:00,74.3,68.8,29.93,ENE,60,1.0,4.0,83,0.00,,,0.01,WeatherCatV1.11B39,2014-01-09 21:52:00,
2014-01-09 11:57:00,74.2,68.7,29.93,NNE,16,2.0,3.0,83,0.00,,,0.01,WeatherCatV1.11B39,2014-01-09 21:57:00,
2014-01-09 12:02:00,74.3,68.8,29.92,ESE,103,2.0,5.0,83,0.00,,,0.01,WeatherCatV1.11B39,2014-01-09 22:02:00,
2014-01-09 12:07:00,74.2,68.3,29.92,ENE,77,1.0,6.0,82,0.00,,,0.01,WeatherCatV1.11B39,2014-01-09 22:07:00,
2014-01-09 12:12:00,74.9,69.0,29.92,SE,141,5.0,6.0,82,0.00,,,0.01,WeatherCatV1.11B39,2014-01-09 22:12:00,
2014-01-09 12:17:00,76.0,70.1,29.91,SW,236,1.0,3.0,82,0.00,,,0.01,WeatherCatV1.11B39,2014-01-09 22:17:00,
2014-01-09 12:22:00,76.3,69.3,29.91,ENE,68,3.0,6.0,79,0.00,,,0.01,WeatherCatV1.11B39,2014-01-09 22:22:00,
2014-01-09 12:27:00,76.7,69.7,29.91,East,87,1.0,4.0,79,0.00,,,0.01,WeatherCatV1.11B39,2014-01-09 22:27:00,
2014-01-09 12:33:00,77.3,69.9,29.91,ENE,78,2.0,2.0,78,0.00,,,0.01,WeatherCatV1.11B39,2014-01-09 22:33:00,
2014-01-09 12:38:00,77.6,69.4,29.90,ESE,117,1.0,3.0,76,0.00,,,0.01,WeatherCatV1.11B39,2014-01-09 22:38:00,
2014-01-09 12:43:00,78.1,68.3,29.90,NNE,27,3.0,6.0,72,0.00,,,0.01,WeatherCatV1.11B39,2014-01-09 22:43:00,
2014-01-09 12:48:00,78.0,68.6,29.90,SSE,147,4.0,6.0,73,0.00,,,0.01,WeatherCatV1.11B39,2014-01-09 22:48:00,
2014-01-09 12:53:00,78.4,69.0,29.89,SSE,159,0.0,5.0,73,0.00,,,0.01,WeatherCatV1.11B39,2014-01-09 22:53:00,
2014-01-09 13:07:00,78.5,69.5,29.89,East,94,1.0,3.0,74,0.00,,,0.01,WeatherCatV1.11B39,2014-01-09 23:07:00,
2014-01-09 13:13:00,78.8,69.0,29.88,ESE,111,2.0,6.0,72,0.00,,,0.01,WeatherCatV1.11B39,2014-01-09 23:13:00,
2014-01-09 13:18:00,79.2,69.0,29.88,ESE,108,3.0,5.0,71,0.00,,,0.01,WeatherCatV1.11B39,2014-01-09 23:18:00,
2014-01-09 13:26:00,78.9,68.7,29.88,SE,134,2.0,5.0,71,0.00,,,0.01,WeatherCatV1.11B39,2014-01-09 23:26:00,
2014-01-09 13:31:00,78.7,67.2,29.88,NNW,340,0.0,1.0,68,0.00,,,0.01,WeatherCatV1.11B39,2014-01-09 23:31:00,
2014-01-09 13:37:00,79.4,68.3,29.87,East,82,0.0,6.0,69,0.00,,,0.01,WeatherCatV1.11B39,2014-01-09 23:37:00,
2014-01-09 13:40:00,79.9,68.8,29.87,ESE,105,1.0,1.0,69,0.00,,,0.00,WeatherCatV1.11B39,2014-01-09 23:40:00,
2014-01-09 13:42:00,80.5,69.4,29.87,ESE,106,2.0,3.0,69,0.00,,,0.01,WeatherCatV1.11B39,2014-01-09 23:42:00,
2014-01-09 13:45:00,80.5,69.4,29.87,East,99,1.0,6.0,69,0.00,,,0.00,WeatherCatV1.11B39,2014-01-09 23:45:00,
2014-01-09 13:50:00,79.7,69.4,29.87,East,86,2.0,5.0,71,0.00,,,0.00,WeatherCatV1.11B39,2014-01-09 23:50:00,
2014-01-09 13:55:00,79.0,70.0,29.87,North,358,2.0,2.0,74,0.00,,,0.00,WeatherCatV1.11B39,2014-01-09 23:55:00,
2014-01-09 14:00:00,78.5,68.7,29.86,NNW,328,2.0,7.0,72,0.00,,,0.00,WeatherCatV1.11B39,2014-01-10 00:00:00,
2014-01-09 14:05:00,77.3,68.3,29.86,NW,320,2.0,5.0,74,0.00,,,0.00,WeatherCatV1.11B39,2014-01-10 00:05:00,
2014-01-09 14:10:00,76.6,68.8,29.86,NW,322,2.0,2.0,77,0.00,,,0.00,WeatherCatV1.11B39,2014-01-10 00:10:00,
2014-01-09 14:22:00,75.9,68.2,29.86,NW,321,2.0,5.0,77,0.00,,,0.00,WeatherCatV1.11B39,2014-01-10 00:22:00,
2014-01-09 14:27:00,75.2,68.6,29.86,NW,320,3.0,8.0,80,0.00,,,0.01,WeatherCatV1.11B39,2014-01-10 00:27:00,
2014-01-09 14:32:00,74.6,68.0,29.86,SE,127,6.0,7.0,80,0.00,,,0.01,WeatherCatV1.11B39,2014-01-10 00:32:00,
2014-01-09 14:37:00,73.8,67.2,29.86,East,84,6.0,10.0,80,0.00,,,0.01,WeatherCatV1.11B39,2014-01-10 00:37:00,
2014-01-09 14:42:00,72.7,67.2,29.86,SSE,149,3.0,6.0,83,0.00,,,0.01,WeatherCatV1.11B39,2014-01-10 00:42:00,
2014-01-09 14:47:00,72.1,67.0,29.86,SE,131,0.0,3.0,84,0.00,,,0.01,WeatherCatV1.11B39,2014-01-10 00:47:00,
2014-01-09 14:52:00,71.8,66.3,29.86,ESE,105,0.0,2.0,83,0.00,,,0.01,WeatherCatV1.11B39,2014-01-10 00:52:00,
2014-01-09 14:57:00,71.9,66.1,29.86,SE,146,1.0,2.0,82,0.00,,,0.01,WeatherCatV1.11B39,2014-01-10 00:57:00,
2014-01-09 15:02:00,72.1,65.9,29.86,ESE,122,3.0,3.0,81,0.00,,,0.01,WeatherCatV1.11B39,2014-01-10 01:02:00,
2014-01-09 15:07:00,72.5,67.0,29.86,South,176,0.0,1.0,83,0.00,,,0.01,WeatherCatV1.11B39,2014-01-10 01:07:00,
2014-01-09 15:12:00,72.9,67.4,29.85,South,173,0.0,0.0,83,0.00,,,0.01,WeatherCatV1.11B39,2014-01-10 01:12:00,
2014-01-09 15:17:00,74.0,68.1,29.85,ESE,116,0.0,1.0,82,0.00,,,0.01,WeatherCatV1.11B39,2014-01-10 01:17:00,
2014-01-09 15:22:00,75.3,68.7,29.85,NE,54,3.0,3.0,80,0.00,,,0.01,WeatherCatV1.11B39,2014-01-10 01:22:00,
2014-01-09 15:27:00,76.2,69.2,29.85,ESE,120,1.0,3.0,79,0.00,,,0.01,WeatherCatV1.11B39,2014-01-10 01:27:00,
2014-01-09 15:32:00,76.5,68.7,29.85,ESE,117,2.0,3.0,77,0.00,,,0.01,WeatherCatV1.11B39,2014-01-10 01:32:00,
2014-01-09 15:37:00,76.9,69.1,29.84,SSE,158,0.0,2.0,77,0.00,,,0.01,WeatherCatV1.11B39,2014-01-10 01:37:00,
2014-01-09 15:42:00,77.4,68.4,29.85,SSE,153,2.0,2.0,74,0.00,,,0.01,WeatherCatV1.11B39,2014-01-10 01:42:00,
2014-01-09 15:47:00,77.2,67.9,29.85,SE,127,1.0,2.0,73,0.00,,,0.01,WeatherCatV1.11B39,2014-01-10 01:47:00,
2014-01-09 15:52:00,77.1,68.2,29.85,SSE,153,1.0,4.0,74,0.00,,,0.01,WeatherCatV1.11B39,2014-01-10 01:52:00,
2014-01-09 15:57:00,77.1,68.2,29.85,SE,140,2.0,3.0,74,0.00,,,0.01,WeatherCatV1.11B39,2014-01-10 01:57:00,
2014-01-09 16:02:00,77.2,68.6,29.85,ESE,119,1.0,3.0,75,0.00,,,0.01,WeatherCatV1.11B39,2014-01-10 02:02:00,
2014-01-09 16:07:00,77.2,68.3,29.85,ENE,66,0.0,2.0,74,0.00,,,0.01,WeatherCatV1.11B39,2014-01-10 02:07:00,
2014-01-09 16:12:00,77.4,68.4,29.85,SE,129,3.0,3.0,74,0.00,,,0.01,WeatherCatV1.11B39,2014-01-10 02:12:00,
2014-01-09 16:17:00,77.0,67.7,29.85,SE,125,4.0,4.0,73,0.00,,,0.01,WeatherCatV1.11B39,2014-01-10 02:17:00,
2014-01-09 16:22:00,76.6,67.7,29.85,East,89,1.0,4.0,74,0.00,,,0.01,WeatherCatV1.11B39,2014-01-10 02:22:00,
2014-01-09 16:27:00,76.2,67.7,29.85,ENE,60,1.0,3.0,75,0.00,,,0.01,WeatherCatV1.11B39,2014-01-10 02:27:00,
2014-01-09 16:32:00,75.8,68.1,29.85,East,101,1.0,4.0,77,0.00,,,0.01,WeatherCatV1.11B39,2014-01-10 02:32:00,
2014-01-09 16:37:00,75.1,67.8,29.85,ESE,120,3.0,3.0,78,0.00,,,0.01,WeatherCatV1.11B39,2014-01-10 02:37:00,
2014-01-09 16:42:00,75.1,67.8,29.85,ENE,66,1.0,5.0,78,0.00,,,0.01,WeatherCatV1.11B39,2014-01-10 02:42:00,
2014-01-09 16:47:00,75.0,68.0,29.85,SSE,159,0.0,3.0,79,0.00,,,0.01,WeatherCatV1.11B39,2014-01-10 02:47:00,
2014-01-09 16:52:00,75.1,68.1,29.86,East,99,0.0,1.0,79,0.00,,,0.01,WeatherCatV1.11B39,2014-01-10 02:52:00,
2014-01-09 16:57:00,74.4,67.4,29.86,ENE,58,4.0,5.0,79,0.00,,,0.01,WeatherCatV1.11B39,2014-01-10 02:57:00,
2014-01-09 17:02:00,73.8,67.2,29.86,SE,132,0.0,2.0,80,0.00,,,0.01,WeatherCatV1.11B39,2014-01-10 03:02:00,
2014-01-09 17:07:00,73.3,67.1,29.86,SE,126,0.0,0.0,81,0.00,,,0.01,WeatherCatV1.11B39,2014-01-10 03:07:00,
2014-01-09 17:12:00,72.9,67.1,29.86,SE,126,0.0,0.0,82,0.00,,,0.01,WeatherCatV1.11B39,2014-01-10 03:12:00,
2014-01-09 17:17:00,72.6,67.1,29.86,SE,126,0.0,0.0,83,0.00,,,0.01,WeatherCatV1.11B39,2014-01-10 03:17:00,
2014-01-09 17:22:00,72.3,67.2,29.86,SE,128,1.0,1.0,84,0.00,,,0.01,WeatherCatV1.11B39,2014-01-10 03:22:00,
2014-01-09 17:27:00,72.2,67.1,29.86,SW,233,0.0,1.0,84,0.00,,,0.01,WeatherCatV1.11B39,2014-01-10 03:27:00,
2014-01-09 17:31:00,72.0,66.9,29.86,WSW,238,0.0,1.0,84,0.00,,,0.01,WeatherCatV1.11B39,2014-01-10 03:31:00,
2014-01-09 17:36:00,71.7,66.6,29.87,SE,124,0.0,1.0,84,0.00,,,0.01,WeatherCatV1.11B39,2014-01-10 03:36:00,
2014-01-09 17:41:00,71.4,66.6,29.87,SE,136,0.0,0.0,85,0.00,,,0.01,WeatherCatV1.11B39,2014-01-10 03:41:00,
2014-01-09 17:46:00,71.0,66.3,29.87,SE,136,0.0,0.0,85,0.00,,,0.01,WeatherCatV1.11B39,2014-01-10 03:46:00,
2014-01-09 17:51:00,70.7,66.3,29.87,SE,137,0.0,0.0,86,0.00,,,0.01,WeatherCatV1.11B39,2014-01-10 03:51:00,
2014-01-09 17:56:00,70.3,66.2,29.88,SE,137,0.0,0.0,87,0.00,,,0.01,WeatherCatV1.11B39,2014-01-10 03:56:00,
2014-01-09 18:01:00,69.9,66.2,29.88,SE,137,0.0,0.0,88,0.00,,,0.01,WeatherCatV1.11B39,2014-01-10 04:01:00,
2014-01-09 18:06:00,69.5,66.1,29.88,SE,137,0.0,0.0,89,0.00,,,0.01,WeatherCatV1.11B39,2014-01-10 04:06:00,
2014-01-09 18:11:00,69.1,65.7,29.88,SE,137,0.0,0.0,89,0.00,,,0.01,WeatherCatV1.11B39,2014-01-10 04:11:00,
2014-01-09 18:16:00,68.7,65.6,29.89,SE,137,0.0,1.0,90,0.00,,,0.01,WeatherCatV1.11B39,2014-01-10 04:16:00,
2014-01-09 18:21:00,68.4,65.3,29.89,SE,137,0.0,0.0,90,0.00,,,0.01,WeatherCatV1.11B39,2014-01-10 04:21:00,
2014-01-09 18:26:00,68.2,65.5,29.89,SE,137,0.0,0.0,91,0.00,,,0.01,WeatherCatV1.11B39,2014-01-10 04:26:00,
2014-01-09 18:31:00,68.0,65.3,29.89,SE,137,0.0,0.0,91,0.00,,,0.01,WeatherCatV1.11B39,2014-01-10 04:31:00,
2014-01-09 18:36:00,67.8,65.1,29.90,SE,137,0.0,0.0,91,0.00,,,0.01,WeatherCatV1.11B39,2014-01-10 04:36:00,
2014-01-09 18:41:00,67.7,65.3,29.90,SE,137,0.0,0.0,92,0.00,,,0.01,WeatherCatV1.11B39,2014-01-10 04:41:00,
2014-01-09 18:46:00,67.6,64.9,29.90,SE,137,0.0,0.0,91,0.00,,,0.01,WeatherCatV1.11B39,2014-01-10 04:46:00,
2014-01-09 18:51:00,67.4,65.0,29.90,SE,137,0.0,0.0,92,0.00,,,0.01,WeatherCatV1.11B39,2014-01-10 04:51:00,
2014-01-09 18:56:00,67.1,65.0,29.90,SE,137,0.0,0.0,93,0.00,,,0.01,WeatherCatV1.11B39,2014-01-10 04:56:00,
2014-01-09 19:01:00,67.0,64.9,29.90,SE,137,0.0,0.0,93,0.00,,,0.01,WeatherCatV1.11B39,2014-01-10 05:01:00,
2014-01-09 19:06:00,66.8,65.0,29.90,SE,137,0.0,0.0,94,0.00,,,0.01,WeatherCatV1.11B39,2014-01-10 05:06:00,
2014-01-09 19:11:00,66.4,64.6,29.91,SE,137,0.0,0.0,94,0.00,,,0.01,WeatherCatV1.11B39,2014-01-10 05:11:00,
2014-01-09 19:17:00,66.2,64.4,29.91,SE,137,0.0,0.0,94,0.00,,,0.01,WeatherCatV1.11B39,2014-01-10 05:17:00,
2014-01-09 19:22:00,66.1,64.3,29.91,SE,137,0.0,0.0,94,0.00,,,0.01,WeatherCatV1.11B39,2014-01-10 05:22:00,
2014-01-09 19:27:00,65.8,64.0,29.91,SE,137,0.0,0.0,94,0.00,,,0.01,WeatherCatV1.11B39,2014-01-10 05:27:00,
2014-01-09 19:32:00,65.4,63.6,29.91,SE,137,0.0,0.0,94,0.00,,,0.01,WeatherCatV1.11B39,2014-01-10 05:32:00,
2014-01-09 19:37:00,65.3,63.8,29.92,SE,137,0.0,1.0,95,0.00,,,0.01,WeatherCatV1.11B39,2014-01-10 05:37:00,
2014-01-09 19:42:00,65.3,63.8,29.92,SE,137,0.0,0.0,95,0.00,,,0.01,WeatherCatV1.11B39,2014-01-10 05:42:00,
2014-01-09 19:47:00,65.3,63.8,29.92,SE,137,0.0,0.0,95,0.00,,,0.01,WeatherCatV1.11B39,2014-01-10 05:47:00,
2014-01-09 19:52:00,65.1,63.3,29.92,SE,137,0.0,0.0,94,0.00,,,0.01,WeatherCatV1.11B39,2014-01-10 05:52:00,
2014-01-09 19:57:00,64.8,63.3,29.92,SE,137,0.0,0.0,95,0.00,,,0.01,WeatherCatV1.11B39,2014-01-10 05:57:00,
2014-01-09 20:02:00,64.6,63.1,29.92,SE,137,0.0,0.0,95,0.00,,,0.01,WeatherCatV1.11B39,2014-01-10 06:02:00,
2014-01-09 20:06:00,64.6,63.1,29.92,SE,137,0.0,0.0,95,0.00,,,0.01,WeatherCatV1.11B39,2014-01-10 06:06:00,
2014-01-09 20:11:00,64.5,63.0,29.93,SE,137,0.0,0.0,95,0.00,,,0.01,WeatherCatV1.11B39,2014-01-10 06:11:00,
2014-01-09 20:16:00,64.3,62.8,29.93,SE,137,0.0,0.0,95,0.00,,,0.01,WeatherCatV1.11B39,2014-01-10 06:16:00,
2014-01-09 20:21:00,64.2,62.7,29.93,SE,137,0.0,0.0,95,0.00,,,0.01,WeatherCatV1.11B39,2014-01-10 06:21:00,
2014-01-09 20:26:00,64.2,63.0,29.93,SE,137,0.0,0.0,96,0.00,,,0.01,WeatherCatV1.11B39,2014-01-10 06:26:00,
2014-01-09 20:31:00,64.1,62.9,29.93,SE,137,0.0,0.0,96,0.00,,,0.01,WeatherCatV1.11B39,2014-01-10 06:31:00,
2014-01-09 20:36:00,64.0,62.8,29.94,SE,137,0.0,0.0,96,0.00,,,0.01,WeatherCatV1.11B39,2014-01-10 06:36:00,
2014-01-09 20:41:00,64.0,62.8,29.94,SE,137,0.0,0.0,96,0.00,,,0.01,WeatherCatV1.11B39,2014-01-10 06:41:00,
2014-01-09 20:46:00,64.0,62.8,29.94,SE,137,0.0,0.0,96,0.00,,,0.01,WeatherCatV1.11B39,2014-01-10 06:46:00,
2014-01-09 20:51:00,63.7,62.5,29.94,SE,137,0.0,0.0,96,0.00,,,0.01,WeatherCatV1.11B39,2014-01-10 06:51:00,
2014-01-09 20:56:00,63.5,62.3,29.94,SE,137,0.0,0.0,96,0.00,,,0.01,WeatherCatV1.11B39,2014-01-10 06:56:00,
2014-01-09 21:01:00,63.3,62.1,29.94,SE,137,0.0,0.0,96,0.00,,,0.01,WeatherCatV1.11B39,2014-01-10 07:01:00,
2014-01-09 21:06:00,63.2,62.0,29.94,SE,137,0.0,0.0,96,0.00,,,0.01,WeatherCatV1.11B39,2014-01-10 07:06:00,
2014-01-09 21:11:00,63.0,61.8,29.94,SE,137,0.0,0.0,96,0.00,,,0.01,WeatherCatV1.11B39,2014-01-10 07:11:00,
2014-01-09 21:16:00,63.0,61.8,29.95,SE,137,0.0,0.0,96,0.00,,,0.01,WeatherCatV1.11B39,2014-01-10 07:16:00,
2014-01-09 21:21:00,63.0,61.8,29.94,SE,137,0.0,0.0,96,0.00,,,0.01,WeatherCatV1.11B39,2014-01-10 07:21:00,
2014-01-09 21:26:00,63.0,62.1,29.95,SE,137,0.0,0.0,97,0.00,,,0.01,WeatherCatV1.11B39,2014-01-10 07:26:00,
2014-01-09 21:31:00,62.9,62.0,29.95,SE,137,0.0,0.0,97,0.00,,,0.01,WeatherCatV1.11B39,2014-01-10 07:31:00,
2014-01-09 21:36:00,62.9,62.0,29.95,SE,137,0.0,0.0,97,0.00,,,0.01,WeatherCatV1.11B39,2014-01-10 07:36:00,
2014-01-09 21:41:00,63.1,62.2,29.95,SE,137,0.0,0.0,97,0.00,,,0.01,WeatherCatV1.11B39,2014-01-10 07:41:00,
2014-01-09 21:46:00,63.3,62.4,29.95,SE,137,0.0,0.0,97,0.00,,,0.01,WeatherCatV1.11B39,2014-01-10 07:46:00,
2014-01-09 21:51:00,63.2,62.3,29.95,SE,137,0.0,0.0,97,0.00,,,0.01,WeatherCatV1.11B39,2014-01-10 07:51:00,
2014-01-09 21:56:00,63.2,62.3,29.95,SE,137,0.0,0.0,97,0.00,,,0.01,WeatherCatV1.11B39,2014-01-10 07:56:00,
2014-01-09 22:01:00,63.3,62.4,29.96,SE,137,0.0,0.0,97,0.00,,,0.01,WeatherCatV1.11B39,2014-01-10 08:01:00,
2014-01-09 22:06:00,63.3,62.4,29.96,SE,137,0.0,0.0,97,0.00,,,0.01,WeatherCatV1.11B39,2014-01-10 08:06:00,
2014-01-09 22:11:00,63.3,62.4,29.96,SE,137,0.0,0.0,97,0.00,,,0.01,WeatherCatV1.11B39,2014-01-10 08:11:00,
2014-01-09 22:16:00,63.4,62.5,29.96,SE,137,0.0,0.0,97,0.00,,,0.01,WeatherCatV1.11B39,2014-01-10 08:16:00,
2014-01-09 22:21:00,63.6,63.0,29.96,SE,137,0.0,0.0,98,0.00,,,0.01,WeatherCatV1.11B39,2014-01-10 08:21:00,
2014-01-09 22:26:00,63.6,62.7,29.96,SE,137,0.0,0.0,97,0.00,,,0.01,WeatherCatV1.11B39,2014-01-10 08:26:00,
2014-01-09 22:31:00,63.7,63.1,29.96,SE,137,0.0,0.0,98,0.00,,,0.01,WeatherCatV1.11B39,2014-01-10 08:31:00,
2014-01-09 22:36:00,63.7,62.8,29.96,SE,137,0.0,0.0,97,0.00,,,0.01,WeatherCatV1.11B39,2014-01-10 08:36:00,
2014-01-09 22:41:00,63.7,62.8,29.96,SE,137,0.0,0.0,97,0.00,,,0.01,WeatherCatV1.11B39,2014-01-10 08:41:00,
2014-01-09 22:46:00,63.6,62.7,29.96,SE,137,0.0,0.0,97,0.00,,,0.01,WeatherCatV1.11B39,2014-01-10 08:46:00,
2014-01-09 22:51:00,63.7,63.1,29.95,SE,137,0.0,0.0,98,0.00,,,0.01,WeatherCatV1.11B39,2014-01-10 08:51:00,
2014-01-09 22:56:00,63.6,62.7,29.95,SE,137,0.0,0.0,97,0.00,,,0.01,WeatherCatV1.11B39,2014-01-10 08:56:00,
2014-01-09 23:01:00,63.5,62.6,29.95,SE,137,0.0,0.0,97,0.00,,,0.01,WeatherCatV1.11B39,2014-01-10 09:01:00,
2014-01-09 23:06:00,63.5,62.9,29.95,SE,137,0.0,0.0,98,0.00,,,0.01,WeatherCatV1.11B39,2014-01-10 09:06:00,
2014-01-09 23:12:00,63.6,63.0,29.95,SE,137,0.0,0.0,98,0.00,,,0.01,WeatherCatV1.11B39,2014-01-10 09:12:00,
2014-01-09 23:16:00,63.6,62.7,29.95,SE,137,0.0,0.0,97,0.00,,,0.01,WeatherCatV1.11B39,2014-01-10 09:16:00,
2014-01-09 23:21:00,63.5,62.9,29.95,SE,137,0.0,0.0,98,0.00,,,0.01,WeatherCatV1.11B39,2014-01-10 09:21:00,
2014-01-09 23:26:00,63.7,63.1,29.95,SE,137,0.0,0.0,98,0.00,,,0.01,WeatherCatV1.11B39,2014-01-10 09:26:00,
2014-01-09 23:31:00,63.8,63.2,29.95,SE,137,0.0,0.0,98,0.00,,,0.01,WeatherCatV1.11B39,2014-01-10 09:31:00,
2014-01-09 23:36:00,63.8,63.2,29.95,SE,137,0.0,0.0,98,0.00,,,0.01,WeatherCatV1.11B39,2014-01-10 09:36:00,
2014-01-09 23:41:00,63.9,63.3,29.95,SE,137,0.0,0.0,98,0.00,,,0.01,WeatherCatV1.11B39,2014-01-10 09:41:00,
2014-01-09 23:46:00,64.1,63.5,29.95,SE,137,0.0,0.0,98,0.00,,,0.01,WeatherCatV1.11B39,2014-01-10 09:46:00,
2014-01-09 23:51:00,64.2,63.6,29.95,SE,137,0.0,0.0,98,0.00,,,0.01,WeatherCatV1.11B39,2014-01-10 09:51:00,
2014-01-09 23:56:00,64.3,63.7,29.95,SE,137,0.0,0.0,98,0.00,,,0.01,WeatherCatV1.11B39,2014-01-10 09:56:00,